Impacts METAR Board
IDs:

KPDX - Portland Intl Arpt, OR, US

Updated at: 1600 UTC 30 Oct 2020
Potential Impact None Slight Moderate High
Time 30/04Z 30/05Z 30/06Z 30/07Z 30/08Z 30/09Z 30/10Z 30/11Z 30/12Z 30/13Z 30/14Z 30/15Z 30/16Z
Temp48 48 46 46 45 44 48 48 48 49 50 50 52
Dewpt44 44 44 44 43 42 46 46 46 47 47 47 47
Altim30.04 30.03 30.05 30.04 30.04 30.04 30.03 30.06 30.06 30.07 30.06 30.06 30.08
VIS7 6 6 6 4 7 1 0.75 3 10 8 9 10
CIG-- -- -- -- -- -- 2 2 3 5 5 14 43
CoverFEWFEWFEWFEWFEWSCTOVCOVCOVCOVCOVCOVCOVC
FltCatVFRVFRVFRVFRMVFRVFRLIFRLIFRLIFRIFRIFRMVFRVFR
WXMIFGMIFGMIFGBRBR--BRBRBR-----RA--
WDir013001201301601602301501501601800
WSpd0 3 0 3 4 3 8 4 6 7 10 7 0
WGst-- -- -- -- -- -- -- -- -- -- -- -- --
Raw hourly METARs
KPDX 300353Z 00000KT 7SM R10R/3000VP6000FT MIFG FEW003 09/07 A3004 RMK AO2 SLP173 T00890067
KPDX 300502Z 13003KT 6SM R10R/1200VP6000FT MIFG FEW003 09/07 A3003 RMK AO2 T00890067
KPDX 300553Z 00000KT 6SM R10R/1800VP6000FT MIFG FEW003 08/07 A3005 RMK AO2 SLP176 T00780067 10144 20078 53003
KPDX 300653Z 12003KT 6SM BR FEW003 08/07 A3004 RMK AO2 SLP170 T00780067
KPDX 300753Z 13004KT 4SM BR FEW003 07/06 A3004 RMK AO2 SLP171 T00720061 401500067
KPDX 300853Z 16003KT 7SM SCT007 07/06 A3004 RMK AO2 SLP171 T00670056 55005
KPDX 300959Z 16008KT 1SM R10R/P6000FT BR OVC002 09/08 A3003 RMK AO2 T00890078
KPDX 301053Z 23004KT 3/4SM R10R/P6000FT BR OVC002 09/08 A3006 RMK AO2 SLP178 T00890078
KPDX 301205Z 15006KT 3SM BR OVC003 09/08 A3006 RMK AO2 SFC VIS 5 T00890078
KPDX 301253Z 15007KT 10SM SCT003 OVC005 09/08 A3007 RMK AO2 SLP182 T00940083
KPDX 301353Z 16010KT 8SM SCT003 OVC005 10/08 A3006 RMK AO2 SLP180 T01000083
KPDX 301453Z 18007KT 9SM -RA SCT009 OVC014 10/08 A3006 RMK AO2 RAB1356E10B37 SLP179 P0000 60000 T01000083 58002
KPDX 301553Z 00000KT 10SM SCT015 BKN043 OVC080 11/08 A3008 RMK AO2 RAE25 SLP184 P0000 T01110083



Page loaded:  16:03 UTC  |   09:03 AM Pacific  |   10:03 AM Mountain  |   11:03 AM Central  |   12:03 PM Eastern

 

ADVISORIES

FORECASTS

FORECASTS

OBSERVATIONS

USER TOOLS

ABOUT US